Montefaro, España

6:37 AM CEST en Septiembre 03, 2014 (GMT +0200)
ICORUAFE2 | Change Station
CLOSE
Current Station
Estación meteorológica personal
Location: Ferrol, CORUnA
Altura: 50 ft
Estaciones meteorológicas cercanas

Alt 50 ft 43.49 °N, 8.26 °W | Updated 5 seconds ago

Clear
Despejado
63.0 ° F
Sensación térmica 63.0 ° F
N
0.0
Viento Variable Viento desde Norte
Gusts 0.0 mph

Hoy
Alta -- | Baja -- ° F
--% Posibilidad de precipitaciones
Ayer
Alta -- | Baja -- ° F
Precip. -- pul
7:59 AM 9:05 PM
Cuarto creciente, 58% visible
Presión 29.92 pul
Visibilidad -9999.0 Millas
Nubes
Punto de rocío 61 ° F
Humedad 93%
Precipitaciones 0.00 pul
Espesor de la nieve No disponible.
UV No disponible.
Polen No disponible.
Calidad del aire No disponible.
Flu Activity No disponible.
METAR LECO 030430Z VRB01KT CAVOK 18/17 Q1013 NOSIG

More Conditions Fewer Conditions

Presión 29.92 pul
Visibilidad -9999.0 Millas
Nubes
Punto de rocío 61 ° F
Humedad 93%
Precipitaciones 0.00 pul
Espesor de la nieve No disponible.
UV No disponible.
Polen No disponible.
Calidad del aire No disponible.
Flu Activity No disponible.
METAR LECO 030430Z VRB01KT CAVOK 18/17 Q1013 NOSIG

More Conditions Fewer Conditions

10-Day Weather Forecast

Almanac

Astronomía

Sep. 03, 2014 Salida Puesta
Hora real 7:59 AM CEST 9:05 PM CEST
Crepúsculo civil 7:29 AM CEST 9:34 PM CEST
Crepúsculo náutico 6:54 AM CEST 10:09 PM CEST
Crepúsculo astronómico 6:17 AM CEST 10:46 PM CEST
Luna 4:39 PM CEST 1:35 AM CEST
Horas de luz 14h 04m
Horas de luz
13h 06m
Tomorrow will be 2m 53s shorter.
Cuarto creciente, 58% of the Moon is Illuminated
Hoy
Cuarto creciente
Sep 8
Luna llena
Sep 15
Cuarto menguante
Sep 24
Nueva
Oct 1
Cuarto creciente

Extremos de ayer

Máximos del país Bajas del país

Community

WunderPhotos

Upload Photos

1,749,870 ¡fotos cargadas!

Nearby

Calidad del aire

Not available.

Grosos de nieve

Not available.

Actividad de terremotos

Ciudad Distance Mag. Tiempo y dato
No hay informes recientes de la actividad sísmica.
Magnitud mínima muestra es 2,5.

Temperaturas de aguas costeras

Lugar Temperatura
Sin partes meteorológicos de las estaciones

Estaciones meteorológicas cercanas